sensor_id;sensor_type;location;lat;lon;timestamp;temperature;humidity
27314;DHT22;14800;48.174;9.798;2023-03-12T00:00:46;2.30;66.10
27314;DHT22;14800;48.174;9.798;2023-03-12T00:03:12;2.30;66.30
27314;DHT22;14800;48.174;9.798;2023-03-12T00:05:40;2.30;66.30
27314;DHT22;14800;48.174;9.798;2023-03-12T00:08:06;2.20;66.30
27314;DHT22;14800;48.174;9.798;2023-03-12T00:10:32;2.20;66.30
27314;DHT22;14800;48.174;9.798;2023-03-12T00:12:58;2.20;66.30
27314;DHT22;14800;48.174;9.798;2023-03-12T00:15:24;2.20;66.50
27314;DHT22;14800;48.174;9.798;2023-03-12T00:17:50;2.20;66.60
27314;DHT22;14800;48.174;9.798;2023-03-12T00:20:16;2.20;66.60
27314;DHT22;14800;48.174;9.798;2023-03-12T00:22:42;2.20;66.70
27314;DHT22;14800;48.174;9.798;2023-03-12T00:25:11;2.20;66.90
27314;DHT22;14800;48.174;9.798;2023-03-12T00:27:38;2.10;67.10
27314;DHT22;14800;48.174;9.798;2023-03-12T00:30:05;2.10;67.10
27314;DHT22;14800;48.174;9.798;2023-03-12T00:32:34;2.00;67.30
27314;DHT22;14800;48.174;9.798;2023-03-12T00:34:59;2.00;67.50
27314;DHT22;14800;48.174;9.798;2023-03-12T00:37:25;2.00;67.40
27314;DHT22;14800;48.174;9.798;2023-03-12T00:39:51;1.90;67.40
27314;DHT22;14800;48.174;9.798;2023-03-12T00:42:17;1.90;67.50
27314;DHT22;14800;48.174;9.798;2023-03-12T00:44:43;1.90;67.60
27314;DHT22;14800;48.174;9.798;2023-03-12T00:47:09;1.90;67.90
27314;DHT22;14800;48.174;9.798;2023-03-12T00:49:35;1.90;67.90
27314;DHT22;14800;48.174;9.798;2023-03-12T00:52:00;1.80;68.00
27314;DHT22;14800;48.174;9.798;2023-03-12T00:54:26;1.80;68.00
27314;DHT22;14800;48.174;9.798;2023-03-12T00:56:52;1.80;68.20
27314;DHT22;14800;48.174;9.798;2023-03-12T00:59:17;1.70;68.20
27314;DHT22;14800;48.174;9.798;2023-03-12T01:01:43;1.70;68.40
27314;DHT22;14800;48.174;9.798;2023-03-12T01:04:09;1.70;68.20
27314;DHT22;14800;48.174;9.798;2023-03-12T01:06:34;1.70;68.20
27314;DHT22;14800;48.174;9.798;2023-03-12T01:09:05;1.70;68.40
27314;DHT22;14800;48.174;9.798;2023-03-12T01:11:31;1.70;68.70
27314;DHT22;14800;48.174;9.798;2023-03-12T01:14:01;1.70;68.70
27314;DHT22;14800;48.174;9.798;2023-03-12T01:16:27;1.70;68.70
27314;DHT22;14800;48.174;9.798;2023-03-12T01:18:55;1.70;68.60
27314;DHT22;14800;48.174;9.798;2023-03-12T01:21:21;1.70;68.60
27314;DHT22;14800;48.174;9.798;2023-03-12T01:23:47;1.60;68.70
27314;DHT22;14800;48.174;9.798;2023-03-12T01:26:13;1.70;68.70
27314;DHT22;14800;48.174;9.798;2023-03-12T01:28:38;1.60;68.90
27314;DHT22;14800;48.174;9.798;2023-03-12T01:31:09;1.70;69.10
27314;DHT22;14800;48.174;9.798;2023-03-12T01:33:35;1.60;69.10
27314;DHT22;14800;48.174;9.798;2023-03-12T01:36:00;1.70;69.10
27314;DHT22;14800;48.174;9.798;2023-03-12T01:38:26;1.60;69.00
27314;DHT22;14800;48.174;9.798;2023-03-12T01:40:52;1.70;69.40
27314;DHT22;14800;48.174;9.798;2023-03-12T01:48:45;1.60;69.40
27314;DHT22;14800;48.174;9.798;2023-03-12T01:51:13;1.70;69.50
27314;DHT22;14800;48.174;9.798;2023-03-12T01:53:43;1.70;69.40
27314;DHT22;14800;48.174;9.798;2023-03-12T01:56:09;1.70;69.60
27314;DHT22;14800;48.174;9.798;2023-03-12T01:58:37;1.60;69.60
27314;DHT22;14800;48.174;9.798;2023-03-12T02:01:04;1.70;69.80
27314;DHT22;14800;48.174;9.798;2023-03-12T02:03:31;1.70;69.90
27314;DHT22;14800;48.174;9.798;2023-03-12T02:06:08;1.70;70.00
27314;DHT22;14800;48.174;9.798;2023-03-12T02:08:37;1.70;70.30
27314;DHT22;14800;48.174;9.798;2023-03-12T02:11:04;1.80;70.10
27314;DHT22;14800;48.174;9.798;2023-03-12T02:13:30;1.80;70.10
27314;DHT22;14800;48.174;9.798;2023-03-12T02:15:55;1.80;70.20
27314;DHT22;14800;48.174;9.798;2023-03-12T02:18:21;1.80;70.10
27314;DHT22;14800;48.174;9.798;2023-03-12T02:20:58;1.80;70.10
27314;DHT22;14800;48.174;9.798;2023-03-12T02:23:34;1.80;70.30
27314;DHT22;14800;48.174;9.798;2023-03-12T02:26:03;1.90;71.20
27314;DHT22;14800;48.174;9.798;2023-03-12T02:28:29;1.90;70.20
27314;DHT22;14800;48.174;9.798;2023-03-12T02:31:02;1.90;70.10
27314;DHT22;14800;48.174;9.798;2023-03-12T02:33:28;1.90;70.30
27314;DHT22;14800;48.174;9.798;2023-03-12T02:35:54;1.90;70.30
27314;DHT22;14800;48.174;9.798;2023-03-12T02:38:40;2.00;70.40
27314;DHT22;14800;48.174;9.798;2023-03-12T02:43:40;2.10;70.60
27314;DHT22;14800;48.174;9.798;2023-03-12T02:46:07;2.10;70.50
27314;DHT22;14800;48.174;9.798;2023-03-12T02:48:33;2.10;70.40
27314;DHT22;14800;48.174;9.798;2023-03-12T02:50:58;2.20;70.50
27314;DHT22;14800;48.174;9.798;2023-03-12T02:53:24;2.20;70.50
27314;DHT22;14800;48.174;9.798;2023-03-12T02:55:49;2.20;70.40
27314;DHT22;14800;48.174;9.798;2023-03-12T02:58:15;2.30;70.50
27314;DHT22;14800;48.174;9.798;2023-03-12T03:00:41;2.30;70.30
27314;DHT22;14800;48.174;9.798;2023-03-12T03:03:06;2.30;70.40
27314;DHT22;14800;48.174;9.798;2023-03-12T03:05:32;2.40;71.30
27314;DHT22;14800;48.174;9.798;2023-03-12T03:08:01;2.40;70.30
27314;DHT22;14800;48.174;9.798;2023-03-12T03:10:27;2.40;71.10
27314;DHT22;14800;48.174;9.798;2023-03-12T03:12:53;2.40;70.30
27314;DHT22;14800;48.174;9.798;2023-03-12T03:15:18;2.40;70.40
27314;DHT22;14800;48.174;9.798;2023-03-12T03:17:44;2.50;70.40
27314;DHT22;14800;48.174;9.798;2023-03-12T03:20:09;2.50;70.40
27314;DHT22;14800;48.174;9.798;2023-03-12T03:22:37;2.60;70.50
27314;DHT22;14800;48.174;9.798;2023-03-12T03:25:03;2.60;70.50
27314;DHT22;14800;48.174;9.798;2023-03-12T03:27:29;2.60;70.50
27314;DHT22;14800;48.174;9.798;2023-03-12T03:29:55;2.70;70.60
27314;DHT22;14800;48.174;9.798;2023-03-12T03:32:20;2.70;70.60
27314;DHT22;14800;48.174;9.798;2023-03-12T03:34:46;2.70;70.50
27314;DHT22;14800;48.174;9.798;2023-03-12T03:37:12;2.80;70.50
27314;DHT22;14800;48.174;9.798;2023-03-12T03:39:37;2.80;70.50
27314;DHT22;14800;48.174;9.798;2023-03-12T03:42:03;2.80;70.50
27314;DHT22;14800;48.174;9.798;2023-03-12T03:44:29;2.90;70.50
27314;DHT22;14800;48.174;9.798;2023-03-12T03:46:55;2.90;70.40
27314;DHT22;14800;48.174;9.798;2023-03-12T03:49:21;2.90;70.30
27314;DHT22;14800;48.174;9.798;2023-03-12T03:51:47;2.90;70.20
27314;DHT22;14800;48.174;9.798;2023-03-12T03:54:13;2.90;70.40
27314;DHT22;14800;48.174;9.798;2023-03-12T03:56:39;3.00;70.50
27314;DHT22;14800;48.174;9.798;2023-03-12T03:59:05;3.00;70.50
27314;DHT22;14800;48.174;9.798;2023-03-12T04:01:31;3.00;70.50
27314;DHT22;14800;48.174;9.798;2023-03-12T04:03:58;3.00;70.60
27314;DHT22;14800;48.174;9.798;2023-03-12T04:06:23;3.10;70.60
27314;DHT22;14800;48.174;9.798;2023-03-12T04:08:49;3.10;70.70
27314;DHT22;14800;48.174;9.798;2023-03-12T04:11:19;3.10;70.70
27314;DHT22;14800;48.174;9.798;2023-03-12T04:13:46;3.10;70.90
27314;DHT22;14800;48.174;9.798;2023-03-12T04:16:12;3.20;71.00
27314;DHT22;14800;48.174;9.798;2023-03-12T04:18:38;3.20;71.00
27314;DHT22;14800;48.174;9.798;2023-03-12T04:21:06;3.20;70.80
27314;DHT22;14800;48.174;9.798;2023-03-12T04:23:32;3.30;71.00
27314;DHT22;14800;48.174;9.798;2023-03-12T04:25:58;3.30;71.00
27314;DHT22;14800;48.174;9.798;2023-03-12T04:28:24;3.30;71.20
27314;DHT22;14800;48.174;9.798;2023-03-12T04:30:57;3.30;71.30
27314;DHT22;14800;48.174;9.798;2023-03-12T04:33:31;3.30;71.70
27314;DHT22;14800;48.174;9.798;2023-03-12T04:35:57;3.40;71.70
27314;DHT22;14800;48.174;9.798;2023-03-12T04:38:25;3.30;71.70
27314;DHT22;14800;48.174;9.798;2023-03-12T04:41:02;3.40;71.90
27314;DHT22;14800;48.174;9.798;2023-03-12T04:43:28;3.40;72.40
27314;DHT22;14800;48.174;9.798;2023-03-12T04:45:54;3.40;72.00
27314;DHT22;14800;48.174;9.798;2023-03-12T04:48:20;3.50;72.30
27314;DHT22;14800;48.174;9.798;2023-03-12T04:50:46;3.50;72.40
27314;DHT22;14800;48.174;9.798;2023-03-12T04:53:11;3.50;72.50
27314;DHT22;14800;48.174;9.798;2023-03-12T04:55:37;3.50;72.70
27314;DHT22;14800;48.174;9.798;2023-03-12T04:58:03;3.50;72.90
27314;DHT22;14800;48.174;9.798;2023-03-12T05:00:28;3.50;73.00
27314;DHT22;14800;48.174;9.798;2023-03-12T05:02:54;3.50;73.10
27314;DHT22;14800;48.174;9.798;2023-03-12T05:05:20;3.60;74.30
27314;DHT22;14800;48.174;9.798;2023-03-12T05:07:45;3.60;73.80
27314;DHT22;14800;48.174;9.798;2023-03-12T05:10:11;3.60;74.10
27314;DHT22;14800;48.174;9.798;2023-03-12T05:12:36;3.60;74.40
27314;DHT22;14800;48.174;9.798;2023-03-12T05:15:02;3.70;74.70
27314;DHT22;14800;48.174;9.798;2023-03-12T05:17:28;3.70;74.90
27314;DHT22;14800;48.174;9.798;2023-03-12T05:19:53;3.70;75.00
27314;DHT22;14800;48.174;9.798;2023-03-12T05:22:19;3.70;75.10
27314;DHT22;14800;48.174;9.798;2023-03-12T05:24:44;3.80;75.10
27314;DHT22;14800;48.174;9.798;2023-03-12T05:27:10;3.80;75.00
27314;DHT22;14800;48.174;9.798;2023-03-12T05:29:36;3.80;75.10
27314;DHT22;14800;48.174;9.798;2023-03-12T05:32:01;3.80;75.00
27314;DHT22;14800;48.174;9.798;2023-03-12T05:34:27;3.80;75.00
27314;DHT22;14800;48.174;9.798;2023-03-12T05:36:55;3.90;75.10
27314;DHT22;14800;48.174;9.798;2023-03-12T05:39:21;3.90;75.10
27314;DHT22;14800;48.174;9.798;2023-03-12T05:41:47;3.90;75.10
27314;DHT22;14800;48.174;9.798;2023-03-12T05:44:12;3.90;75.10
27314;DHT22;14800;48.174;9.798;2023-03-12T05:46:41;3.90;74.90
27314;DHT22;14800;48.174;9.798;2023-03-12T05:49:07;3.90;74.80
27314;DHT22;14800;48.174;9.798;2023-03-12T05:51:33;3.90;74.80
27314;DHT22;14800;48.174;9.798;2023-03-12T05:53:58;3.90;75.00
27314;DHT22;14800;48.174;9.798;2023-03-12T05:56:24;3.90;75.10
27314;DHT22;14800;48.174;9.798;2023-03-12T05:58:50;3.90;75.20
27314;DHT22;14800;48.174;9.798;2023-03-12T06:01:18;3.90;75.20
27314;DHT22;14800;48.174;9.798;2023-03-12T06:03:44;4.00;75.20
27314;DHT22;14800;48.174;9.798;2023-03-12T06:06:10;4.00;75.40
27314;DHT22;14800;48.174;9.798;2023-03-12T06:08:36;4.00;75.30
27314;DHT22;14800;48.174;9.798;2023-03-12T06:11:02;4.00;75.20
27314;DHT22;14800;48.174;9.798;2023-03-12T06:13:28;4.10;75.50
27314;DHT22;14800;48.174;9.798;2023-03-12T06:15:53;4.10;75.40
27314;DHT22;14800;48.174;9.798;2023-03-12T06:18:19;4.20;75.50
27314;DHT22;14800;48.174;9.798;2023-03-12T06:20:45;4.20;75.50
27314;DHT22;14800;48.174;9.798;2023-03-12T06:23:10;4.20;75.50
27314;DHT22;14800;48.174;9.798;2023-03-12T06:25:36;4.20;75.60
27314;DHT22;14800;48.174;9.798;2023-03-12T06:28:02;4.30;75.90
27314;DHT22;14800;48.174;9.798;2023-03-12T06:30:27;4.30;76.10
27314;DHT22;14800;48.174;9.798;2023-03-12T06:32:53;4.40;76.90
27314;DHT22;14800;48.174;9.798;2023-03-12T06:35:22;4.40;76.60
27314;DHT22;14800;48.174;9.798;2023-03-12T06:37:47;4.40;76.90
27314;DHT22;14800;48.174;9.798;2023-03-12T06:40:13;4.50;77.20
27314;DHT22;14800;48.174;9.798;2023-03-12T06:42:38;4.50;77.50
27314;DHT22;14800;48.174;9.798;2023-03-12T06:45:05;4.60;77.60
27314;DHT22;14800;48.174;9.798;2023-03-12T06:47:31;4.60;77.80
27314;DHT22;14800;48.174;9.798;2023-03-12T06:49:56;4.60;77.80
27314;DHT22;14800;48.174;9.798;2023-03-12T06:52:22;4.70;78.10
27314;DHT22;14800;48.174;9.798;2023-03-12T06:54:47;4.70;78.30
27314;DHT22;14800;48.174;9.798;2023-03-12T06:57:13;4.70;78.30
27314;DHT22;14800;48.174;9.798;2023-03-12T06:59:41;4.80;78.50
27314;DHT22;14800;48.174;9.798;2023-03-12T07:02:09;4.80;78.50
27314;DHT22;14800;48.174;9.798;2023-03-12T07:04:35;4.90;78.70
27314;DHT22;14800;48.174;9.798;2023-03-12T07:07:01;5.00;78.80
27314;DHT22;14800;48.174;9.798;2023-03-12T07:09:26;5.00;78.70
27314;DHT22;14800;48.174;9.798;2023-03-12T07:11:52;5.00;78.60
27314;DHT22;14800;48.174;9.798;2023-03-12T07:14:17;5.00;79.50
27314;DHT22;14800;48.174;9.798;2023-03-12T07:16:44;5.10;78.80
27314;DHT22;14800;48.174;9.798;2023-03-12T07:19:10;5.10;78.90
27314;DHT22;14800;48.174;9.798;2023-03-12T07:21:35;5.20;79.00
27314;DHT22;14800;48.174;9.798;2023-03-12T07:24:01;5.20;79.20
27314;DHT22;14800;48.174;9.798;2023-03-12T07:26:31;5.20;79.30
27314;DHT22;14800;48.174;9.798;2023-03-12T07:28:57;5.30;79.40
27314;DHT22;14800;48.174;9.798;2023-03-12T07:31:22;5.30;79.40
27314;DHT22;14800;48.174;9.798;2023-03-12T07:33:48;5.30;79.30
27314;DHT22;14800;48.174;9.798;2023-03-12T07:36:14;5.40;79.20
27314;DHT22;14800;48.174;9.798;2023-03-12T07:38:39;5.40;79.30
27314;DHT22;14800;48.174;9.798;2023-03-12T07:41:05;5.40;79.40
27314;DHT22;14800;48.174;9.798;2023-03-12T07:43:30;5.50;79.30
27314;DHT22;14800;48.174;9.798;2023-03-12T07:48:32;5.60;79.60
27314;DHT22;14800;48.174;9.798;2023-03-12T07:50:57;5.60;79.70
27314;DHT22;14800;48.174;9.798;2023-03-12T07:53:23;5.60;79.70
27314;DHT22;14800;48.174;9.798;2023-03-12T07:55:48;5.70;79.70
27314;DHT22;14800;48.174;9.798;2023-03-12T07:58:15;5.70;79.60
27314;DHT22;14800;48.174;9.798;2023-03-12T08:00:41;5.70;79.80
27314;DHT22;14800;48.174;9.798;2023-03-12T08:03:06;5.80;79.90
27314;DHT22;14800;48.174;9.798;2023-03-12T08:05:32;5.80;80.10
27314;DHT22;14800;48.174;9.798;2023-03-12T08:07:57;5.80;80.20
27314;DHT22;14800;48.174;9.798;2023-03-12T08:10:23;5.90;80.20
27314;DHT22;14800;48.174;9.798;2023-03-12T08:12:48;5.90;80.30
27314;DHT22;14800;48.174;9.798;2023-03-12T08:15:14;5.90;80.40
27314;DHT22;14800;48.174;9.798;2023-03-12T08:17:40;6.00;80.40
27314;DHT22;14800;48.174;9.798;2023-03-12T08:20:06;6.00;80.40
27314;DHT22;14800;48.174;9.798;2023-03-12T08:22:35;6.10;80.50
27314;DHT22;14800;48.174;9.798;2023-03-12T08:25:00;6.10;80.70
27314;DHT22;14800;48.174;9.798;2023-03-12T08:30:02;6.20;80.80
27314;DHT22;14800;48.174;9.798;2023-03-12T08:32:28;6.30;81.10
27314;DHT22;14800;48.174;9.798;2023-03-12T08:34:54;6.30;81.30
27314;DHT22;14800;48.174;9.798;2023-03-12T08:37:19;6.40;81.50
27314;DHT22;14800;48.174;9.798;2023-03-12T08:39:45;6.40;81.60
27314;DHT22;14800;48.174;9.798;2023-03-12T08:42:10;6.50;81.80
27314;DHT22;14800;48.174;9.798;2023-03-12T08:44:36;6.60;82.40
27314;DHT22;14800;48.174;9.798;2023-03-12T08:47:02;6.70;82.70
27314;DHT22;14800;48.174;9.798;2023-03-12T08:49:27;6.70;83.30
27314;DHT22;14800;48.174;9.798;2023-03-12T08:51:53;6.80;83.60
27314;DHT22;14800;48.174;9.798;2023-03-12T08:54:19;6.90;83.80
27314;DHT22;14800;48.174;9.798;2023-03-12T08:56:48;6.90;83.50
27314;DHT22;14800;48.174;9.798;2023-03-12T08:59:16;7.00;84.30
27314;DHT22;14800;48.174;9.798;2023-03-12T09:01:42;7.10;84.10
27314;DHT22;14800;48.174;9.798;2023-03-12T09:04:08;7.20;84.30
27314;DHT22;14800;48.174;9.798;2023-03-12T09:06:34;7.30;84.60
27314;DHT22;14800;48.174;9.798;2023-03-12T09:08:59;7.40;84.90
27314;DHT22;14800;48.174;9.798;2023-03-12T09:11:32;7.50;85.00
27314;DHT22;14800;48.174;9.798;2023-03-12T09:13:58;7.60;85.50
27314;DHT22;14800;48.174;9.798;2023-03-12T09:16:24;7.70;85.10
27314;DHT22;14800;48.174;9.798;2023-03-12T09:18:50;7.80;85.40
27314;DHT22;14800;48.174;9.798;2023-03-12T09:21:15;7.90;85.70
27314;DHT22;14800;48.174;9.798;2023-03-12T09:23:41;8.00;85.20
27314;DHT22;14800;48.174;9.798;2023-03-12T09:26:11;8.10;86.00
27314;DHT22;14800;48.174;9.798;2023-03-12T09:28:36;8.20;84.90
27314;DHT22;14800;48.174;9.798;2023-03-12T09:31:03;8.40;84.60
27314;DHT22;14800;48.174;9.798;2023-03-12T09:33:29;8.50;84.50
27314;DHT22;14800;48.174;9.798;2023-03-12T09:35:56;8.50;84.10
27314;DHT22;14800;48.174;9.798;2023-03-12T09:38:22;8.60;83.80
27314;DHT22;14800;48.174;9.798;2023-03-12T09:40:48;8.70;83.60
27314;DHT22;14800;48.174;9.798;2023-03-12T09:43:19;8.80;83.30
27314;DHT22;14800;48.174;9.798;2023-03-12T09:45:48;8.90;83.20
27314;DHT22;14800;48.174;9.798;2023-03-12T09:48:33;9.00;82.90
27314;DHT22;14800;48.174;9.798;2023-03-12T09:51:05;9.00;83.10
27314;DHT22;14800;48.174;9.798;2023-03-12T09:53:55;9.00;84.30
27314;DHT22;14800;48.174;9.798;2023-03-12T09:56:22;9.10;83.10
27314;DHT22;14800;48.174;9.798;2023-03-12T09:58:49;9.20;82.40
27314;DHT22;14800;48.174;9.798;2023-03-12T10:01:36;9.20;82.20
27314;DHT22;14800;48.174;9.798;2023-03-12T10:06:41;9.30;82.00
27314;DHT22;14800;48.174;9.798;2023-03-12T10:11:58;9.30;84.00
27314;DHT22;14800;48.174;9.798;2023-03-12T10:17:28;9.30;82.70
27314;DHT22;14800;48.174;9.798;2023-03-12T10:27:58;9.50;82.70
27314;DHT22;14800;48.174;9.798;2023-03-12T10:30:29;9.50;82.10
27314;DHT22;14800;48.174;9.798;2023-03-12T10:32:59;9.60;82.40
27314;DHT22;14800;48.174;9.798;2023-03-12T10:35:27;9.60;82.30
27314;DHT22;14800;48.174;9.798;2023-03-12T10:38:00;9.70;82.40
27314;DHT22;14800;48.174;9.798;2023-03-12T10:40:29;9.80;82.40
27314;DHT22;14800;48.174;9.798;2023-03-12T10:42:55;9.80;82.10
27314;DHT22;14800;48.174;9.798;2023-03-12T10:48:01;10.00;82.20
27314;DHT22;14800;48.174;9.798;2023-03-12T10:50:29;10.00;81.70
27314;DHT22;14800;48.174;9.798;2023-03-12T10:53:12;10.10;81.50
27314;DHT22;14800;48.174;9.798;2023-03-12T10:55:38;10.20;82.20
27314;DHT22;14800;48.174;9.798;2023-03-12T10:58:04;10.20;81.70
27314;DHT22;14800;48.174;9.798;2023-03-12T11:00:31;10.30;81.80
27314;DHT22;14800;48.174;9.798;2023-03-12T11:03:16;10.40;81.70
27314;DHT22;14800;48.174;9.798;2023-03-12T11:05:48;10.50;81.40
27314;DHT22;14800;48.174;9.798;2023-03-12T11:08:25;10.60;81.30
27314;DHT22;14800;48.174;9.798;2023-03-12T11:10:56;10.70;81.00
27314;DHT22;14800;48.174;9.798;2023-03-12T11:13:55;10.80;80.50
27314;DHT22;14800;48.174;9.798;2023-03-12T11:18:59;10.90;79.60
27314;DHT22;14800;48.174;9.798;2023-03-12T11:21:30;11.00;79.50
27314;DHT22;14800;48.174;9.798;2023-03-12T11:26:24;11.10;79.30
27314;DHT22;14800;48.174;9.798;2023-03-12T11:28:56;11.10;79.60
27314;DHT22;14800;48.174;9.798;2023-03-12T11:31:30;11.20;79.50
27314;DHT22;14800;48.174;9.798;2023-03-12T11:34:04;11.30;79.70
27314;DHT22;14800;48.174;9.798;2023-03-12T11:45:34;11.70;79.60
27314;DHT22;14800;48.174;9.798;2023-03-12T11:50:36;12.00;78.70
27314;DHT22;14800;48.174;9.798;2023-03-12T12:07:44;12.40;77.20
27314;DHT22;14800;48.174;9.798;2023-03-12T12:15:05;12.40;77.00
27314;DHT22;14800;48.174;9.798;2023-03-12T12:17:58;12.40;76.70
27314;DHT22;14800;48.174;9.798;2023-03-12T12:20:44;12.40;76.20
27314;DHT22;14800;48.174;9.798;2023-03-12T12:26:11;12.30;76.30
27314;DHT22;14800;48.174;9.798;2023-03-12T12:37:39;12.30;77.10
27314;DHT22;14800;48.174;9.798;2023-03-12T12:40:20;12.30;77.00
27314;DHT22;14800;48.174;9.798;2023-03-12T12:43:10;12.40;77.00
27314;DHT22;14800;48.174;9.798;2023-03-12T12:45:39;12.40;76.90
27314;DHT22;14800;48.174;9.798;2023-03-12T12:48:38;12.50;76.70
27314;DHT22;14800;48.174;9.798;2023-03-12T12:51:05;12.50;76.80
27314;DHT22;14800;48.174;9.798;2023-03-12T12:56:24;12.70;76.00
27314;DHT22;14800;48.174;9.798;2023-03-12T12:59:03;12.70;75.70
27314;DHT22;14800;48.174;9.798;2023-03-12T13:01:32;12.80;75.40
27314;DHT22;14800;48.174;9.798;2023-03-12T13:04:05;12.80;75.10
27314;DHT22;14800;48.174;9.798;2023-03-12T13:09:45;12.90;74.20
27314;DHT22;14800;48.174;9.798;2023-03-12T13:12:24;13.00;74.10
27314;DHT22;14800;48.174;9.798;2023-03-12T13:14:52;13.00;73.80
27314;DHT22;14800;48.174;9.798;2023-03-12T13:18:00;13.10;73.50
27314;DHT22;14800;48.174;9.798;2023-03-12T13:21:04;13.10;74.20
27314;DHT22;14800;48.174;9.798;2023-03-12T13:23:40;13.20;72.80
27314;DHT22;14800;48.174;9.798;2023-03-12T13:33:59;13.20;72.10
27314;DHT22;14800;48.174;9.798;2023-03-12T13:36:36;13.20;72.10
27314;DHT22;14800;48.174;9.798;2023-03-12T13:41:39;13.20;71.90
27314;DHT22;14800;48.174;9.798;2023-03-12T13:49:58;13.30;71.90
27314;DHT22;14800;48.174;9.798;2023-03-12T13:52:38;13.30;71.80
27314;DHT22;14800;48.174;9.798;2023-03-12T13:55:18;13.30;71.80
27314;DHT22;14800;48.174;9.798;2023-03-12T13:57:55;13.30;71.60
27314;DHT22;14800;48.174;9.798;2023-03-12T14:00:25;13.30;72.60
27314;DHT22;14800;48.174;9.798;2023-03-12T14:03:12;13.20;71.80
27314;DHT22;14800;48.174;9.798;2023-03-12T14:08:46;13.20;71.60
27314;DHT22;14800;48.174;9.798;2023-03-12T14:18:58;13.10;71.40
27314;DHT22;14800;48.174;9.798;2023-03-12T14:21:28;13.00;71.40
27314;DHT22;14800;48.174;9.798;2023-03-12T14:23:57;13.00;71.40
27314;DHT22;14800;48.174;9.798;2023-03-12T14:26:26;12.90;71.40
27314;DHT22;14800;48.174;9.798;2023-03-12T14:29:05;12.90;71.40
27314;DHT22;14800;48.174;9.798;2023-03-12T14:31:32;12.80;71.60
27314;DHT22;14800;48.174;9.798;2023-03-12T14:36:38;12.80;73.00
27314;DHT22;14800;48.174;9.798;2023-03-12T14:42:03;12.70;72.50
27314;DHT22;14800;48.174;9.798;2023-03-12T14:44:31;12.70;72.50
27314;DHT22;14800;48.174;9.798;2023-03-12T14:47:00;12.70;72.40
27314;DHT22;14800;48.174;9.798;2023-03-12T14:49:27;12.70;72.00
27314;DHT22;14800;48.174;9.798;2023-03-12T14:51:54;12.70;71.80
27314;DHT22;14800;48.174;9.798;2023-03-12T14:54:23;12.70;71.80
27314;DHT22;14800;48.174;9.798;2023-03-12T14:56:50;12.70;71.90
27314;DHT22;14800;48.174;9.798;2023-03-12T14:59:29;12.70;72.20
27314;DHT22;14800;48.174;9.798;2023-03-12T15:02:17;12.80;72.40
27314;DHT22;14800;48.174;9.798;2023-03-12T15:04:43;12.70;72.70
27314;DHT22;14800;48.174;9.798;2023-03-12T15:07:11;12.80;72.60
27314;DHT22;14800;48.174;9.798;2023-03-12T15:09:41;12.80;72.60
27314;DHT22;14800;48.174;9.798;2023-03-12T15:12:18;12.80;72.30
27314;DHT22;14800;48.174;9.798;2023-03-12T15:14:44;12.80;71.80
27314;DHT22;14800;48.174;9.798;2023-03-12T15:17:17;12.80;71.70
27314;DHT22;14800;48.174;9.798;2023-03-12T15:19:44;12.90;71.30
27314;DHT22;14800;48.174;9.798;2023-03-12T15:22:17;12.90;71.40
27314;DHT22;14800;48.174;9.798;2023-03-12T15:24:43;12.90;71.10
27314;DHT22;14800;48.174;9.798;2023-03-12T15:29:52;13.00;70.10
27314;DHT22;14800;48.174;9.798;2023-03-12T15:32:20;13.00;70.60
27314;DHT22;14800;48.174;9.798;2023-03-12T15:34:46;13.00;70.20
27314;DHT22;14800;48.174;9.798;2023-03-12T15:39:49;13.10;69.70
27314;DHT22;14800;48.174;9.798;2023-03-12T15:42:16;13.10;69.70
27314;DHT22;14800;48.174;9.798;2023-03-12T15:45:13;13.10;69.60
27314;DHT22;14800;48.174;9.798;2023-03-12T15:47:38;13.10;69.60
27314;DHT22;14800;48.174;9.798;2023-03-12T15:55:28;13.10;69.00
27314;DHT22;14800;48.174;9.798;2023-03-12T15:57:56;13.10;69.70
27314;DHT22;14800;48.174;9.798;2023-03-12T16:00:41;13.10;68.90
27314;DHT22;14800;48.174;9.798;2023-03-12T16:03:15;13.10;68.20
27314;DHT22;14800;48.174;9.798;2023-03-12T16:05:40;13.10;67.90
27314;DHT22;14800;48.174;9.798;2023-03-12T16:08:20;13.10;68.20
27314;DHT22;14800;48.174;9.798;2023-03-12T16:10:48;13.10;67.40
27314;DHT22;14800;48.174;9.798;2023-03-12T16:13:16;13.10;67.80
27314;DHT22;14800;48.174;9.798;2023-03-12T16:15:44;13.10;67.60
27314;DHT22;14800;48.174;9.798;2023-03-12T16:18:18;13.10;67.60
27314;DHT22;14800;48.174;9.798;2023-03-12T16:20:45;13.10;67.40
27314;DHT22;14800;48.174;9.798;2023-03-12T16:23:11;13.10;67.70
27314;DHT22;14800;48.174;9.798;2023-03-12T16:25:37;13.00;67.70
27314;DHT22;14800;48.174;9.798;2023-03-12T16:28:04;13.00;67.70
27314;DHT22;14800;48.174;9.798;2023-03-12T16:30:35;13.00;67.80
27314;DHT22;14800;48.174;9.798;2023-03-12T16:33:03;12.90;68.00
27314;DHT22;14800;48.174;9.798;2023-03-12T16:35:30;12.90;68.00
27314;DHT22;14800;48.174;9.798;2023-03-12T16:37:57;12.90;68.10
27314;DHT22;14800;48.174;9.798;2023-03-12T16:40:26;12.90;68.30
27314;DHT22;14800;48.174;9.798;2023-03-12T16:42:53;12.90;68.50
27314;DHT22;14800;48.174;9.798;2023-03-12T16:45:20;12.80;68.50
27314;DHT22;14800;48.174;9.798;2023-03-12T16:47:51;12.80;68.60
27314;DHT22;14800;48.174;9.798;2023-03-12T16:50:19;12.80;68.60
27314;DHT22;14800;48.174;9.798;2023-03-12T16:52:46;12.70;68.60
27314;DHT22;14800;48.174;9.798;2023-03-12T16:55:13;12.70;68.70
27314;DHT22;14800;48.174;9.798;2023-03-12T16:57:44;12.70;68.80
27314;DHT22;14800;48.174;9.798;2023-03-12T17:00:23;12.60;68.80
27314;DHT22;14800;48.174;9.798;2023-03-12T17:02:49;12.60;69.00
27314;DHT22;14800;48.174;9.798;2023-03-12T17:05:19;12.60;69.00
27314;DHT22;14800;48.174;9.798;2023-03-12T17:07:45;12.60;69.20
27314;DHT22;14800;48.174;9.798;2023-03-12T17:10:11;12.60;69.20
27314;DHT22;14800;48.174;9.798;2023-03-12T17:12:39;12.50;69.20
27314;DHT22;14800;48.174;9.798;2023-03-12T17:15:10;12.50;69.20
27314;DHT22;14800;48.174;9.798;2023-03-12T17:17:37;12.50;69.10
27314;DHT22;14800;48.174;9.798;2023-03-12T17:20:03;12.50;69.20
27314;DHT22;14800;48.174;9.798;2023-03-12T17:22:35;12.50;69.20
27314;DHT22;14800;48.174;9.798;2023-03-12T17:25:01;12.40;69.20
27314;DHT22;14800;48.174;9.798;2023-03-12T17:27:27;12.40;70.10
27314;DHT22;14800;48.174;9.798;2023-03-12T17:29:52;12.40;69.20
27314;DHT22;14800;48.174;9.798;2023-03-12T17:32:18;12.40;69.20
27314;DHT22;14800;48.174;9.798;2023-03-12T17:34:43;12.40;69.20
27314;DHT22;14800;48.174;9.798;2023-03-12T17:37:09;12.30;69.10
27314;DHT22;14800;48.174;9.798;2023-03-12T17:39:35;12.30;69.10
27314;DHT22;14800;48.174;9.798;2023-03-12T17:42:00;12.30;69.00
27314;DHT22;14800;48.174;9.798;2023-03-12T17:44:31;12.30;69.00
27314;DHT22;14800;48.174;9.798;2023-03-12T17:47:01;12.20;68.70
27314;DHT22;14800;48.174;9.798;2023-03-12T17:49:27;12.20;68.80
27314;DHT22;14800;48.174;9.798;2023-03-12T17:51:53;12.20;68.70
27314;DHT22;14800;48.174;9.798;2023-03-12T17:54:19;12.20;68.70
27314;DHT22;14800;48.174;9.798;2023-03-12T17:56:46;12.20;68.80